Terminal Aerodrome Forecast
Issued by NWS

Home | Current Version | Previous Version | Text Only | Print | Product List | Glossary Off
Versions: 1 2 3 4 5 6 7 8 9 10 11 12 13 14 15 16 17 18

000
FTUS43 KBIS 310200 AAA
TAFDIK
TAF AMD
KDIK 310247Z 3103/3124 12008KT P6SM VCTS BKN050CB
      TEMPO 3103/3106 TSRA SCT015 BKN035CB
     FM310600 30010KT P6SM BKN015
     FM311300 30010KT P6SM SCT015 BKN050=

USA.gov is the U.S. government's official web portal to all federal, state and local government web resources and services.